createdAt,value
2023-04-28T00:01:12.933Z,0.20
2023-04-28T00:04:16.168Z,1.67
2023-04-28T00:07:19.159Z,0.20
2023-04-28T00:10:21.629Z,0.13
2023-04-28T00:13:24.274Z,0.45
2023-04-28T00:16:26.777Z,0.43
2023-04-28T00:19:29.254Z,0.20
2023-04-28T00:22:32.682Z,0.20
2023-04-28T00:25:35.175Z,0.20
2023-04-28T00:28:38.130Z,0.20
2023-04-28T00:31:42.284Z,0.13
2023-04-28T00:34:45.140Z,0.20
2023-04-28T00:37:47.636Z,0.20
2023-04-28T00:40:50.147Z,0.20
2023-04-28T00:43:52.584Z,0.20
2023-04-28T00:46:55.409Z,0.30
2023-04-28T00:49:58.374Z,0.20
2023-04-28T00:53:00.990Z,0.30
2023-04-28T00:56:03.918Z,0.20
2023-04-28T00:59:06.602Z,0.20
2023-04-28T01:02:17.251Z,0.17
2023-04-28T01:05:20.186Z,0.20
2023-04-28T01:08:24.770Z,0.22
2023-04-28T01:11:27.347Z,0.20
2023-04-28T01:14:43.185Z,1.23
2023-04-28T01:17:49.044Z,1.50
2023-04-28T01:20:52.062Z,0.33
2023-04-28T01:23:54.915Z,0.20
2023-04-28T01:26:57.383Z,0.65
2023-04-28T01:30:00.028Z,0.20
2023-04-28T01:33:03.590Z,0.40
2023-04-28T01:36:06.810Z,0.40
2023-04-28T01:39:09.204Z,2.05
2023-04-28T01:42:11.931Z,1.42
2023-04-28T01:45:14.301Z,0.20
2023-04-28T01:48:17.285Z,0.20
2023-04-28T01:51:22.117Z,0.30
2023-04-28T01:54:24.848Z,0.98
2023-04-28T01:57:29.168Z,1.00
2023-04-28T02:00:33.307Z,0.20
2023-04-28T02:03:36.346Z,0.20
2023-04-28T02:06:39.446Z,0.20
2023-04-28T02:09:42.142Z,0.20
2023-04-28T02:12:44.826Z,0.30
2023-04-28T02:15:47.412Z,0.20
2023-04-28T02:18:50.383Z,0.20
2023-04-28T02:21:52.927Z,0.17
2023-04-28T02:24:55.442Z,0.40
2023-04-28T02:27:57.879Z,0.73
2023-04-28T02:31:09.519Z,0.20
2023-04-28T02:34:12.206Z,0.20
2023-04-28T02:37:14.810Z,0.20
2023-04-28T02:40:17.634Z,2.05
2023-04-28T02:43:20.224Z,0.40
2023-04-28T02:46:22.738Z,0.20
2023-04-28T02:49:26.618Z,0.20
2023-04-28T02:52:29.120Z,0.20
2023-04-28T02:55:32.254Z,0.20
2023-04-28T02:58:35.766Z,0.20
2023-04-28T03:01:38.234Z,0.20
2023-04-28T03:04:41.097Z,0.20
2023-04-28T03:07:43.569Z,0.20
2023-04-28T03:10:46.635Z,0.30
2023-04-28T03:13:49.327Z,1.05
2023-04-28T03:16:51.760Z,0.20
2023-04-28T03:19:54.381Z,0.20
2023-04-28T03:22:57.533Z,0.23
2023-04-28T03:25:59.975Z,0.43
2023-04-28T03:29:02.645Z,0.20
2023-04-28T03:32:07.010Z,0.25
2023-04-28T03:35:09.881Z,0.20
2023-04-28T03:38:13.166Z,0.10
2023-04-28T03:41:16.144Z,0.73
2023-04-28T03:44:38.790Z,0.20
2023-04-28T03:47:42.816Z,0.10
2023-04-28T03:50:45.637Z,0.10
2023-04-28T03:53:48.200Z,0.23
2023-04-28T03:56:50.820Z,0.20
2023-04-28T03:59:53.306Z,1.60
2023-04-28T04:02:56.158Z,0.30
2023-04-28T04:05:58.958Z,0.20
2023-04-28T04:09:02.027Z,0.20
2023-04-28T04:12:05.351Z,0.20
2023-04-28T04:15:08.727Z,0.20
2023-04-28T04:18:11.825Z,0.47
2023-04-28T04:21:34.292Z,1.03
2023-04-28T04:24:37.539Z,0.20
2023-04-28T04:27:39.990Z,2.05
2023-04-28T04:30:43.524Z,0.30
2023-04-28T04:33:46.274Z,0.30
2023-04-28T04:36:49.007Z,0.20
2023-04-28T04:39:51.699Z,0.60
2023-04-28T04:42:54.262Z,0.20
2023-04-28T04:45:57.075Z,0.80
2023-04-28T04:48:59.552Z,0.20
2023-04-28T04:52:03.027Z,0.20
2023-04-28T04:55:07.130Z,0.53
2023-04-28T04:58:10.025Z,0.88
2023-04-28T05:01:44.929Z,0.20
2023-04-28T05:04:48.154Z,0.45
2023-04-28T05:07:51.467Z,0.30
2023-04-28T05:10:54.175Z,0.20
2023-04-28T05:13:56.615Z,1.25
2023-04-28T05:16:59.820Z,0.20
2023-04-28T05:20:08.542Z,0.20
2023-04-28T05:23:11.423Z,0.20
2023-04-28T05:26:13.914Z,0.30
2023-04-28T05:29:16.936Z,0.25
2023-04-28T05:32:19.647Z,0.20
2023-04-28T05:35:22.197Z,0.20
2023-04-28T05:38:24.891Z,0.80
2023-04-28T05:41:27.876Z,0.27
2023-04-28T05:44:31.845Z,0.60
2023-04-28T05:47:35.615Z,0.30
2023-04-28T05:50:39.120Z,0.20
2023-04-28T05:53:42.012Z,0.20
2023-04-28T05:56:44.694Z,0.30
2023-04-28T05:59:47.247Z,0.20
2023-04-28T06:02:50.674Z,0.47
2023-04-28T06:05:53.528Z,0.45
2023-04-28T06:08:56.261Z,0.30
2023-04-28T06:11:58.729Z,0.20
2023-04-28T06:15:01.659Z,0.20
2023-04-28T06:18:06.611Z,0.20
2023-04-28T06:21:09.779Z,0.30
2023-04-28T06:24:12.745Z,0.57
2023-04-28T06:27:17.223Z,0.30
2023-04-28T06:30:22.161Z,0.30
2023-04-28T06:33:24.562Z,0.30
2023-04-28T06:36:28.326Z,0.20
2023-04-28T06:39:30.867Z,0.27
2023-04-28T06:42:33.995Z,0.30
2023-04-28T06:45:46.731Z,0.43
2023-04-28T06:48:49.465Z,0.22
2023-04-28T06:51:53.290Z,0.63
2023-04-28T06:54:55.933Z,0.30
2023-04-28T06:58:00.034Z,0.30
2023-04-28T07:01:13.172Z,0.30
2023-04-28T07:04:30.123Z,0.30
2023-04-28T07:07:32.762Z,0.30
2023-04-28T07:10:35.308Z,0.30
2023-04-28T07:13:37.819Z,0.40
2023-04-28T07:16:40.584Z,0.30
2023-04-28T07:19:43.083Z,0.40
2023-04-28T07:22:45.587Z,0.40
2023-04-28T07:25:48.053Z,0.30
2023-04-28T07:28:50.566Z,0.40
2023-04-28T07:31:53.269Z,0.57
2023-04-28T07:34:55.755Z,0.88
2023-04-28T07:37:58.522Z,0.45
2023-04-28T07:41:01.200Z,0.57
2023-04-28T07:44:05.461Z,0.30
2023-04-28T07:47:08.877Z,0.30
2023-04-28T07:50:12.253Z,0.40
2023-04-28T07:53:14.790Z,0.40
2023-04-28T07:56:17.329Z,0.40
2023-04-28T07:59:19.888Z,0.30
2023-04-28T08:02:22.445Z,0.73
2023-04-28T08:05:25.085Z,0.60
2023-04-28T08:08:27.753Z,0.40
2023-04-28T08:11:30.598Z,0.40
2023-04-28T08:14:33.042Z,0.70
2023-04-28T08:17:35.539Z,0.68
2023-04-28T08:20:38.127Z,0.30
2023-04-28T08:23:40.642Z,0.60
2023-04-28T08:26:43.225Z,0.60
2023-04-28T08:29:45.706Z,0.37
2023-04-28T08:32:48.260Z,0.82
2023-04-28T08:36:03.273Z,0.50
2023-04-28T08:39:13.535Z,0.40
2023-04-28T08:42:16.748Z,0.40
2023-04-28T08:45:19.280Z,0.40
2023-04-28T08:48:23.034Z,0.60
2023-04-28T08:51:40.890Z,0.63
2023-04-28T08:54:46.301Z,0.40
2023-04-28T08:57:52.013Z,0.30
2023-04-28T09:00:54.782Z,0.40
2023-04-28T09:04:00.922Z,0.38
2023-04-28T09:07:03.475Z,0.30
2023-04-28T09:10:25.836Z,0.50
2023-04-28T09:13:33.046Z,0.77
2023-04-28T09:16:41.923Z,0.40
2023-04-28T09:19:44.730Z,0.35
2023-04-28T09:22:48.425Z,0.40
2023-04-28T09:26:04.612Z,0.43
2023-04-28T09:29:13.911Z,0.40
2023-04-28T09:32:16.440Z,0.70
2023-04-28T09:35:39.832Z,0.50
2023-04-28T09:38:45.434Z,0.73
2023-04-28T09:41:48.943Z,0.52
2023-04-28T09:44:54.330Z,0.40
2023-04-28T09:48:10.754Z,0.40
2023-04-28T09:51:21.009Z,0.98
2023-04-28T09:54:27.758Z,0.50
2023-04-28T09:57:32.724Z,0.73
2023-04-28T10:00:36.601Z,0.70
2023-04-28T10:03:41.255Z,0.77
2023-04-28T10:06:44.771Z,0.60
2023-04-28T10:09:51.097Z,0.50
2023-04-28T10:12:53.979Z,0.50
2023-04-28T10:15:58.445Z,0.77
2023-04-28T10:19:03.399Z,0.60
2023-04-28T10:22:12.425Z,0.50
2023-04-28T10:25:28.104Z,0.50
2023-04-28T10:28:30.736Z,0.60
2023-04-28T10:31:35.010Z,0.93
2023-04-28T10:34:37.789Z,0.53
2023-04-28T10:38:15.017Z,0.50
2023-04-28T10:41:33.607Z,0.50
2023-04-28T10:44:37.779Z,0.57
2023-04-28T10:48:04.443Z,0.52
2023-04-28T10:51:21.689Z,0.40
2023-04-28T10:54:25.438Z,0.60
2023-04-28T10:57:27.938Z,0.43
2023-04-28T11:00:33.148Z,0.57
2023-04-28T11:03:48.012Z,0.50
2023-04-28T11:07:10.119Z,0.63
2023-04-28T11:10:12.701Z,0.50
2023-04-28T11:13:28.228Z,0.70
2023-04-28T11:16:31.720Z,0.52
2023-04-28T11:19:43.616Z,0.63
2023-04-28T11:22:52.486Z,0.60
2023-04-28T11:25:56.183Z,0.50
2023-04-28T11:28:58.745Z,0.75
2023-04-28T11:32:01.873Z,0.65
2023-04-28T11:35:05.422Z,0.70
2023-04-28T11:38:07.960Z,0.50
2023-04-28T11:41:10.556Z,0.80
2023-04-28T11:44:13.961Z,1.00
2023-04-28T11:47:16.518Z,0.60
2023-04-28T11:50:36.039Z,0.65
2023-04-28T11:53:43.659Z,0.70
2023-04-28T11:56:46.480Z,0.70
2023-04-28T11:59:50.577Z,0.60
2023-04-28T12:02:53.650Z,0.70
2023-04-28T12:05:56.261Z,0.63
2023-04-28T12:09:04.291Z,0.70
2023-04-28T12:12:40.079Z,0.70
2023-04-28T12:15:48.277Z,0.70
2023-04-28T12:19:00.381Z,0.70
2023-04-28T12:22:05.652Z,0.80
2023-04-28T12:25:12.767Z,0.70
2023-04-28T12:28:15.347Z,0.90
2023-04-28T12:31:17.942Z,0.70
2023-04-28T12:34:20.409Z,1.00
2023-04-28T12:37:22.975Z,0.95
2023-04-28T12:40:26.282Z,1.03
2023-04-28T12:43:29.692Z,0.90
2023-04-28T12:46:32.300Z,1.00
2023-04-28T12:49:36.264Z,0.90
2023-04-28T12:52:38.774Z,1.10
2023-04-28T12:55:41.226Z,1.20
2023-04-28T12:58:43.698Z,1.10
2023-04-28T13:01:46.202Z,1.10
2023-04-28T13:04:49.336Z,1.13
2023-04-28T13:07:52.595Z,1.10
2023-04-28T13:10:57.274Z,1.20
2023-04-28T13:14:00.158Z,1.40
2023-04-28T13:17:03.493Z,1.40
2023-04-28T13:20:06.882Z,1.20
2023-04-28T13:23:09.425Z,1.70
2023-04-28T13:26:11.890Z,1.50
2023-04-28T13:29:14.513Z,1.77
2023-04-28T13:32:16.976Z,1.58
2023-04-28T13:35:20.215Z,1.40
2023-04-28T13:38:23.406Z,1.70
2023-04-28T13:41:26.188Z,1.50
2023-04-28T13:44:28.793Z,1.60
2023-04-28T13:47:32.772Z,1.77
2023-04-28T13:50:35.891Z,1.83
2023-04-28T13:53:39.003Z,1.70
2023-04-28T13:56:41.696Z,2.00
2023-04-28T13:59:44.104Z,1.85
2023-04-28T14:02:49.627Z,1.63
2023-04-28T14:05:54.011Z,1.80
2023-04-28T14:08:56.560Z,1.70
2023-04-28T14:11:59.126Z,1.63
2023-04-28T14:15:01.508Z,1.60
2023-04-28T14:18:04.309Z,1.58
2023-04-28T14:21:08.524Z,1.25
2023-04-28T14:24:11.500Z,1.30
2023-04-28T14:27:14.097Z,0.80
2023-04-28T14:30:17.400Z,0.90
2023-04-28T14:33:20.173Z,0.88
2023-04-28T14:36:22.556Z,0.80
2023-04-28T14:39:24.968Z,1.13
2023-04-28T14:42:31.470Z,1.30
2023-04-28T14:45:36.477Z,1.30
2023-04-28T14:48:39.188Z,1.13
2023-04-28T14:51:42.173Z,1.13
2023-04-28T14:54:44.892Z,1.30
2023-04-28T14:57:48.329Z,0.90
2023-04-28T15:00:52.349Z,0.98
2023-04-28T15:03:54.900Z,0.90
2023-04-28T15:06:57.625Z,0.80
2023-04-28T15:10:00.280Z,0.90
2023-04-28T15:13:02.943Z,0.80
2023-04-28T15:16:06.121Z,1.02
2023-04-28T15:19:08.603Z,0.60
2023-04-28T15:22:11.104Z,0.77
2023-04-28T15:25:13.507Z,0.60
2023-04-28T15:28:16.088Z,0.80
2023-04-28T15:31:18.689Z,0.50
2023-04-28T15:34:21.444Z,0.60
2023-04-28T15:37:47.742Z,0.50
2023-04-28T15:40:50.449Z,0.40
2023-04-28T15:43:52.821Z,0.60
2023-04-28T15:46:55.479Z,0.40
2023-04-28T15:49:59.371Z,0.50
2023-04-28T15:53:02.186Z,0.50
2023-04-28T15:56:04.792Z,0.50
2023-04-28T15:59:07.603Z,0.40
2023-04-28T16:02:10.288Z,0.60
2023-04-28T16:05:13.055Z,0.77
2023-04-28T16:08:15.928Z,0.50
2023-04-28T16:11:20.374Z,0.40
2023-04-28T16:14:23.343Z,0.43
2023-04-28T16:17:25.866Z,0.30
2023-04-28T16:20:28.397Z,0.50
2023-04-28T16:23:30.815Z,0.38
2023-04-28T16:26:33.250Z,0.40
2023-04-28T16:29:36.789Z,0.30
2023-04-28T16:32:40.709Z,0.40
2023-04-28T16:35:43.204Z,0.30
2023-04-28T16:38:46.657Z,0.43
2023-04-28T16:41:49.224Z,0.43
2023-04-28T16:44:53.055Z,0.40
2023-04-28T16:47:55.965Z,0.60
2023-04-28T16:50:58.775Z,0.30
2023-04-28T16:54:02.069Z,0.35
2023-04-28T16:57:04.413Z,0.50
2023-04-28T17:00:07.602Z,0.40
2023-04-28T17:03:10.296Z,0.30
2023-04-28T17:06:13.085Z,0.40
2023-04-28T17:09:15.939Z,0.30
2023-04-28T17:12:18.549Z,0.40
2023-04-28T17:15:21.328Z,0.40
2023-04-28T17:18:25.714Z,0.40
2023-04-28T17:21:31.453Z,0.40
2023-04-28T17:24:33.965Z,0.60
2023-04-28T17:27:36.398Z,0.40
2023-04-28T17:30:39.170Z,0.93
2023-04-28T17:33:43.385Z,0.75
2023-04-28T17:36:46.872Z,1.60
2023-04-28T17:39:50.969Z,0.55
2023-04-28T17:42:56.788Z,1.00
2023-04-28T17:45:59.329Z,0.30
2023-04-28T17:49:02.001Z,0.50
2023-04-28T17:52:04.487Z,0.38
2023-04-28T17:55:07.245Z,0.45
2023-04-28T17:58:09.675Z,0.30
2023-04-28T18:01:12.235Z,0.63
2023-04-28T18:04:15.009Z,0.47
2023-04-28T18:07:17.660Z,0.75
2023-04-28T18:10:20.407Z,0.73
2023-04-28T18:13:22.878Z,0.77
2023-04-28T18:16:26.435Z,0.50
2023-04-28T18:19:30.421Z,0.40
2023-04-28T18:22:33.152Z,1.33
2023-04-28T18:25:37.151Z,0.73
2023-04-28T18:28:40.606Z,2.10
2023-04-28T18:31:43.233Z,2.03
2023-04-28T18:34:47.346Z,1.05
2023-04-28T18:37:50.124Z,0.70
2023-04-28T18:40:52.898Z,0.30
2023-04-28T18:43:58.294Z,0.77
2023-04-28T18:47:00.860Z,0.50
2023-04-28T18:50:03.747Z,1.00
2023-04-28T18:53:08.875Z,0.40
2023-04-28T18:56:11.505Z,0.70
2023-04-28T18:59:14.250Z,1.37
2023-04-28T19:02:17.743Z,1.27
2023-04-28T19:05:20.964Z,0.65
2023-04-28T19:08:24.010Z,0.52
2023-04-28T19:11:26.983Z,0.32
2023-04-28T19:14:29.721Z,1.10
2023-04-28T19:17:32.452Z,0.53
2023-04-28T19:20:35.814Z,0.45
2023-04-28T19:23:41.910Z,0.40
2023-04-28T19:26:44.378Z,0.40
2023-04-28T19:29:47.326Z,0.93
2023-04-28T19:32:50.221Z,0.30
2023-04-28T19:35:56.708Z,0.32
2023-04-28T19:38:59.588Z,0.90
2023-04-28T19:42:03.568Z,0.30
2023-04-28T19:45:07.436Z,0.70
2023-04-28T19:48:10.304Z,0.47
2023-04-28T19:51:14.446Z,0.45
2023-04-28T19:54:17.593Z,0.35
2023-04-28T19:57:20.959Z,0.30
2023-04-28T20:00:25.678Z,0.40
2023-04-28T20:03:29.977Z,0.37
2023-04-28T20:06:33.123Z,0.40
2023-04-28T20:09:39.478Z,0.50
2023-04-28T20:12:42.445Z,0.38
2023-04-28T20:15:44.905Z,0.30
2023-04-28T20:18:48.951Z,0.30
2023-04-28T20:21:51.806Z,0.60
2023-04-28T20:24:54.606Z,0.32
2023-04-28T20:27:57.272Z,0.35
2023-04-28T20:31:00.114Z,0.47
2023-04-28T20:34:03.975Z,0.33
2023-04-28T20:37:06.755Z,0.50
2023-04-28T20:40:10.610Z,0.65
2023-04-28T20:43:13.275Z,0.40
2023-04-28T20:46:16.582Z,0.50
2023-04-28T20:49:19.279Z,0.30
2023-04-28T20:52:21.932Z,0.30
2023-04-28T20:55:24.551Z,0.30
2023-04-28T20:58:28.040Z,0.32
2023-04-28T21:01:30.599Z,0.30
2023-04-28T21:04:33.268Z,0.50
2023-04-28T21:07:35.578Z,0.30
2023-04-28T21:10:38.513Z,0.45
2023-04-28T21:13:42.923Z,0.35
2023-04-28T21:16:45.499Z,0.70
2023-04-28T21:19:48.163Z,0.30
2023-04-28T21:22:51.007Z,0.20
2023-04-28T21:25:53.453Z,0.70
2023-04-28T21:28:56.634Z,0.30
2023-04-28T21:31:59.259Z,0.30
2023-04-28T21:35:02.291Z,0.40
2023-04-28T21:38:04.902Z,0.47
2023-04-28T21:41:07.827Z,0.60
2023-04-28T21:44:10.430Z,0.70
2023-04-28T21:47:12.885Z,0.30
2023-04-28T21:50:15.730Z,0.30
2023-04-28T21:53:18.200Z,0.45
2023-04-28T21:56:20.604Z,0.50
2023-04-28T21:59:23.043Z,0.90
2023-04-28T22:02:25.545Z,0.30
2023-04-28T22:05:29.240Z,0.30
2023-04-28T22:08:31.972Z,0.20
2023-04-28T22:11:34.589Z,0.60
2023-04-28T22:14:41.137Z,0.55
2023-04-28T22:17:43.936Z,0.60
2023-04-28T22:20:46.926Z,0.60
2023-04-28T22:23:49.407Z,0.40
2023-04-28T22:27:03.859Z,0.55
2023-04-28T22:30:08.420Z,0.40
2023-04-28T22:33:11.119Z,0.20
2023-04-28T22:36:13.519Z,0.30
2023-04-28T22:39:16.049Z,0.47
2023-04-28T22:42:18.747Z,0.40
2023-04-28T22:45:21.293Z,0.30
2023-04-28T22:48:24.172Z,0.70
2023-04-28T22:51:27.283Z,0.40
2023-04-28T22:54:30.359Z,0.40
2023-04-28T22:57:32.724Z,0.30
2023-04-28T23:00:35.915Z,0.50
2023-04-28T23:03:38.831Z,0.63
2023-04-28T23:06:41.294Z,0.20
2023-04-28T23:09:43.839Z,0.50
2023-04-28T23:12:46.394Z,0.20
2023-04-28T23:15:48.986Z,0.30
2023-04-28T23:18:51.520Z,0.30
2023-04-28T23:21:54.504Z,0.30
2023-04-28T23:24:57.371Z,0.30
2023-04-28T23:27:59.781Z,0.20
2023-04-28T23:31:02.412Z,0.60
2023-04-28T23:34:06.233Z,0.30
2023-04-28T23:37:08.796Z,0.30
2023-04-28T23:40:11.859Z,0.30
2023-04-28T23:43:14.683Z,0.30
2023-04-28T23:46:17.568Z,0.20
2023-04-28T23:49:21.040Z,0.40
2023-04-28T23:52:23.628Z,0.30
2023-04-28T23:55:26.171Z,0.30
2023-04-28T23:58:28.906Z,0.30
